Time;durP1;ratioP1;P1;durP2;ratioP2;P2;SDS_P1;SDS_P2;PMS_P1;PMS_P2;Temp;Humidity;BMP_temperature;BMP_pressure;BME280_temperature;BME280_humidity;BME280_pressure;Samples;Min_cycle;Max_cycle;Signal;HPM_P1;HPM_P2
2022/11/20 00:00:04;;;;;;;4.38;3.72;;;;;;;;;;5052740;28;20040;-77
2022/11/20 00:02:30;;;;;;;0.45;0.00;;;;;;;;;;5051284;28;20469;-77
2022/11/20 00:04:57;;;;;;;2.05;2.03;;;;;;;;;;5052778;28;20127;-78
2022/11/20 00:07:24;;;;;;;0.65;0.63;;;;;;;;;;5056761;28;20036;-78
2022/11/20 00:09:50;;;;;;;0.95;0.00;;;;;;;;;;5055285;28;20140;-78
2022/11/20 00:12:16;;;;;;;0.00;0.00;;;;;;;;;;5056520;28;20403;-78
2022/11/20 00:14:43;;;;;;;0.00;0.00;;;;;;;;;;5055108;28;20116;-77
2022/11/20 00:17:09;;;;;;;0.00;0.00;;;;;;;;;;5054948;28;20100;-77
2022/11/20 00:19:35;;;;;;;0.20;0.20;;;;;;;;;;5062047;28;20066;-78
2022/11/20 00:22:02;;;;;;;0.00;0.00;;;;;;;;;;5067483;28;20109;-77
2022/11/20 00:24:28;;;;;;;0.95;0.45;;;;;;;;;;5071646;28;20116;-77
2022/11/20 00:26:54;;;;;;;0.00;0.00;;;;;;;;;;5086464;28;20040;-78
2022/11/20 00:29:21;;;;;;;1.20;1.08;;;;;;;;;;5065003;28;20021;-78
2022/11/20 00:31:48;;;;;;;1.35;1.35;;;;;;;;;;5065083;28;20034;-78
2022/11/20 00:34:14;;;;;;;0.00;0.00;;;;;;;;;;5076413;28;20056;-78
2022/11/20 00:36:43;;;;;;;1.02;1.02;;;;;;;;;;5073745;28;20063;-78
2022/11/20 00:39:09;;;;;;;0.00;0.00;;;;;;;;;;5064232;28;20385;-77
2022/11/20 00:41:36;;;;;;;1.45;0.20;;;;;;;;;;5070103;28;20032;-77
2022/11/20 00:44:02;;;;;;;2.30;2.20;;;;;;;;;;5066893;28;20109;-77
2022/11/20 00:46:29;;;;;;;0.00;0.00;;;;;;;;;;5058791;28;20033;-78
2022/11/20 00:48:55;;;;;;;0.00;0.00;;;;;;;;;;5065972;28;20033;-77
2022/11/20 00:51:23;;;;;;;17.20;15.65;;;;;;;;;;5066849;28;20052;-78
2022/11/20 00:53:49;;;;;;;0.00;0.00;;;;;;;;;;5056728;28;20437;-78
2022/11/20 00:56:17;;;;;;;0.00;0.00;;;;;;;;;;5064699;28;20028;-78
2022/11/20 00:58:44;;;;;;;0.00;0.00;;;;;;;;;;5074461;28;20060;-77
2022/11/20 01:01:12;;;;;;;0.00;0.00;;;;;;;;;;5054312;28;20021;-78
2022/11/20 01:03:40;;;;;;;0.00;0.00;;;;;;;;;;5069162;28;20029;-79
2022/11/20 01:06:17;;;;;;;1.73;1.63;;;;;;;;;;5064197;28;20055;-78
2022/11/20 01:08:44;;;;;;;0.00;0.00;;;;;;;;;;5068623;28;20088;-78
2022/11/20 01:11:11;;;;;;;0.00;0.00;;;;;;;;;;5065757;28;20092;-78
2022/11/20 01:13:38;;;;;;;0.20;0.20;;;;;;;;;;5062068;28;20024;-77
2022/11/20 01:16:11;;;;;;;0.00;0.00;;;;;;;;;;5063131;28;20371;-78
2022/11/20 01:18:38;;;;;;;3.13;2.47;;;;;;;;;;5062979;28;20421;-78
2022/11/20 01:21:05;;;;;;;0.10;0.10;;;;;;;;;;5063748;28;20021;-78
2022/11/20 01:23:36;;;;;;;0.00;0.00;;;;;;;;;;5063717;28;20362;-78
2022/11/20 01:26:03;;;;;;;0.00;0.00;;;;;;;;;;5064434;28;20025;-78
2022/11/20 01:28:30;;;;;;;0.00;0.00;;;;;;;;;;5073024;28;20017;-78
2022/11/20 01:30:57;;;;;;;0.00;0.00;;;;;;;;;;5087537;28;20020;-76
2022/11/20 01:33:23;;;;;;;0.00;0.00;;;;;;;;;;5074998;28;20110;-78
2022/11/20 01:35:50;;;;;;;0.00;0.00;;;;;;;;;;5062051;28;20052;-78
2022/11/20 01:38:17;;;;;;;0.00;0.00;;;;;;;;;;5069375;28;20028;-78
2022/11/20 01:40:43;;;;;;;0.00;0.00;;;;;;;;;;5061869;28;20025;-78
2022/11/20 01:43:20;;;;;;;4.95;4.75;;;;;;;;;;5063849;28;20539;-78
2022/11/20 01:45:58;;;;;;;0.00;0.00;;;;;;;;;;5065381;28;20053;-77
2022/11/20 01:48:26;;;;;;;1.92;1.33;;;;;;;;;;5061938;28;20039;-78
2022/11/20 01:50:53;;;;;;;0.47;0.35;;;;;;;;;;5061281;28;20100;-78
2022/11/20 01:53:22;;;;;;;0.63;0.50;;;;;;;;;;5064213;28;20040;-78
2022/11/20 01:55:50;;;;;;;0.30;0.30;;;;;;;;;;5061869;28;20049;-78
2022/11/20 01:58:17;;;;;;;0.00;0.00;;;;;;;;;;5055083;28;20021;-78
2022/11/20 02:00:44;;;;;;;0.00;0.00;;;;;;;;;;5053516;28;20620;-78
2022/11/20 02:03:13;;;;;;;0.00;0.00;;;;;;;;;;5063710;28;20478;-78
2022/11/20 02:05:42;;;;;;;0.00;0.00;;;;;;;;;;5065745;28;20056;-78
2022/11/20 02:08:09;;;;;;;0.00;0.00;;;;;;;;;;5069693;28;20093;-78
2022/11/20 02:10:35;;;;;;;0.00;0.00;;;;;;;;;;5074701;28;20052;-77
2022/11/20 02:15:47;;;;;;;0.38;0.38;;;;;;;;;;5074592;28;20151;-78
2022/11/20 02:18:15;;;;;;;0.73;0.43;;;;;;;;;;5074411;28;20477;-78
2022/11/20 02:20:44;;;;;;;1.65;1.35;;;;;;;;;;5072767;28;20028;-78
2022/11/20 02:23:10;;;;;;;0.00;0.00;;;;;;;;;;5072835;28;20111;-78
2022/11/20 02:25:37;;;;;;;0.00;0.00;;;;;;;;;;5072741;28;20232;-78
2022/11/20 02:28:04;;;;;;;0.40;0.40;;;;;;;;;;5068205;28;20028;-77
2022/11/20 02:30:31;;;;;;;0.00;0.00;;;;;;;;;;5074488;28;20120;-78
2022/11/20 02:32:58;;;;;;;0.15;0.15;;;;;;;;;;5082181;28;20052;-77
2022/11/20 02:35:25;;;;;;;0.00;0.00;;;;;;;;;;5094253;28;20059;-76
2022/11/20 02:37:53;;;;;;;0.00;0.00;;;;;;;;;;5078082;28;20092;-78
2022/11/20 02:40:20;;;;;;;0.00;0.00;;;;;;;;;;5074089;28;20029;-77
2022/11/20 02:42:46;;;;;;;0.00;0.00;;;;;;;;;;5072096;28;20473;-78
2022/11/20 02:45:12;;;;;;;0.00;0.00;;;;;;;;;;5072257;28;20052;-77
2022/11/20 02:47:39;;;;;;;0.00;0.00;;;;;;;;;;5071979;28;20035;-77
2022/11/20 02:50:06;;;;;;;0.00;0.00;;;;;;;;;;5073687;28;20027;-78
2022/11/20 02:52:32;;;;;;;0.00;0.00;;;;;;;;;;5072259;28;20111;-77
2022/11/20 02:54:59;;;;;;;1.00;0.00;;;;;;;;;;5067773;28;20100;-78
2022/11/20 02:57:25;;;;;;;0.00;0.00;;;;;;;;;;5080017;28;20542;-78
2022/11/20 02:59:51;;;;;;;0.00;0.00;;;;;;;;;;5061033;28;20158;-77
2022/11/20 03:02:18;;;;;;;0.00;0.00;;;;;;;;;;5069350;28;20032;-77
2022/11/20 03:08:22;;;;;;;0.30;0.30;;;;;;;;;;5115848;28;20034;-77
2022/11/20 03:10:49;;;;;;;0.00;0.00;;;;;;;;;;5011090;28;20441;-71
2022/11/20 03:13:15;;;;;;;0.00;0.00;;;;;;;;;;5011294;28;20394;-71
2022/11/20 03:15:41;;;;;;;0.00;0.00;;;;;;;;;;5018509;28;20078;-71
2022/11/20 03:18:08;;;;;;;0.00;0.00;;;;;;;;;;5013708;28;20105;-71
2022/11/20 03:20:34;;;;;;;0.00;0.00;;;;;;;;;;5022747;28;20027;-71
2022/11/20 03:23:01;;;;;;;0.00;0.00;;;;;;;;;;5032017;28;20032;-70
2022/11/20 03:25:28;;;;;;;0.00;0.00;;;;;;;;;;5031341;28;20044;-71
2022/11/20 03:27:54;;;;;;;0.00;0.00;;;;;;;;;;5041480;28;20033;-71
2022/11/20 03:30:21;;;;;;;0.00;0.00;;;;;;;;;;5025331;28;20029;-71
2022/11/20 03:32:47;;;;;;;0.08;0.08;;;;;;;;;;5031300;28;20458;-72
2022/11/20 03:35:13;;;;;;;0.00;0.00;;;;;;;;;;5027744;28;20027;-71
2022/11/20 03:37:40;;;;;;;0.10;0.10;;;;;;;;;;5025921;28;20030;-71
2022/11/20 03:40:07;;;;;;;0.00;0.00;;;;;;;;;;5027059;28;20025;-72
2022/11/20 03:42:46;;;;;;;0.00;0.00;;;;;;;;;;5027064;28;20109;-70
2022/11/20 03:45:13;;;;;;;0.00;0.00;;;;;;;;;;5029933;28;20022;-71
2022/11/20 03:47:40;;;;;;;2.03;1.98;;;;;;;;;;5031229;28;20053;-70
2022/11/20 03:50:06;;;;;;;0.00;0.00;;;;;;;;;;5032095;28;20040;-70
2022/11/20 03:52:32;;;;;;;0.00;0.00;;;;;;;;;;5037920;28;20487;-70
2022/11/20 03:54:59;;;;;;;0.00;0.00;;;;;;;;;;5028655;28;20108;-70
2022/11/20 03:57:25;;;;;;;2.17;1.48;;;;;;;;;;5029616;28;20149;-70
2022/11/20 03:59:51;;;;;;;0.00;0.00;;;;;;;;;;5032553;28;20064;-71
2022/11/20 04:02:18;;;;;;;0.52;0.52;;;;;;;;;;5030770;28;20033;-71
2022/11/20 04:04:44;;;;;;;0.55;0.55;;;;;;;;;;5042642;28;20022;-71
2022/11/20 04:07:10;;;;;;;0.00;0.00;;;;;;;;;;5031628;28;20029;-70
2022/11/20 04:09:37;;;;;;;1.50;1.27;;;;;;;;;;5031351;28;20436;-71
2022/11/20 04:12:03;;;;;;;0.10;0.00;;;;;;;;;;5030103;28;20033;-71
2022/11/20 04:14:29;;;;;;;10.55;9.85;;;;;;;;;;5032137;28;20482;-72
2022/11/20 04:16:56;;;;;;;2.85;0.00;;;;;;;;;;5030807;28;20032;-71
2022/11/20 04:19:22;;;;;;;0.20;0.20;;;;;;;;;;5031823;28;20378;-71
2022/11/20 04:21:48;;;;;;;0.20;0.20;;;;;;;;;;5032401;28;20529;-71
2022/11/20 04:24:15;;;;;;;1.05;0.80;;;;;;;;;;5029962;28;20056;-71
2022/11/20 04:26:41;;;;;;;0.63;0.43;;;;;;;;;;5030485;28;20025;-71
2022/11/20 04:29:10;;;;;;;0.00;0.00;;;;;;;;;;5031819;28;20030;-71
2022/11/20 04:31:37;;;;;;;0.10;0.10;;;;;;;;;;5028973;28;20525;-71
2022/11/20 04:34:04;;;;;;;0.10;0.10;;;;;;;;;;5028682;28;20038;-71
2022/11/20 04:36:31;;;;;;;4.80;4.32;;;;;;;;;;5027954;28;20017;-71
2022/11/20 04:38:58;;;;;;;0.63;0.63;;;;;;;;;;5031147;28;20056;-71
2022/11/20 04:41:26;;;;;;;20.60;18.67;;;;;;;;;;5028196;28;20470;-70
2022/11/20 04:43:59;;;;;;;0.00;0.00;;;;;;;;;;5029255;28;20033;-71
2022/11/20 04:46:26;;;;;;;6.05;5.40;;;;;;;;;;5028933;28;20026;-71
2022/11/20 04:48:52;;;;;;;0.95;0.50;;;;;;;;;;5030660;28;20525;-71
2022/11/20 04:51:18;;;;;;;2.20;0.30;;;;;;;;;;5030808;28;20493;-71
2022/11/20 04:53:45;;;;;;;0.10;0.10;;;;;;;;;;5033683;28;20036;-71
2022/11/20 04:56:12;;;;;;;0.00;0.00;;;;;;;;;;5030996;28;20032;-72
2022/11/20 04:58:39;;;;;;;0.30;0.30;;;;;;;;;;5032029;28;20156;-70
2022/11/20 05:01:06;;;;;;;0.00;0.00;;;;;;;;;;5029975;28;20018;-71
2022/11/20 05:03:33;;;;;;;0.45;0.45;;;;;;;;;;5033745;28;20091;-71
2022/11/20 05:06:05;;;;;;;0.70;0.57;;;;;;;;;;5034887;28;20032;-71
2022/11/20 05:08:32;;;;;;;0.35;0.35;;;;;;;;;;5033795;28;20112;-70
2022/11/20 05:11:03;;;;;;;0.10;0.10;;;;;;;;;;5034212;28;20036;-71
2022/11/20 05:13:29;;;;;;;2.25;2.13;;;;;;;;;;5034089;28;20067;-71
2022/11/20 05:15:55;;;;;;;0.15;0.15;;;;;;;;;;5034715;28;20497;-69
2022/11/20 05:18:22;;;;;;;1.77;1.75;;;;;;;;;;5036472;28;20072;-70
2022/11/20 05:20:55;;;;;;;63.13;57.60;;;;;;;;;;5033986;28;20104;-70
2022/11/20 05:23:21;;;;;;;0.08;0.03;;;;;;;;;;5033406;28;20025;-72
2022/11/20 05:25:47;;;;;;;0.30;0.30;;;;;;;;;;5033392;28;20029;-71
2022/11/20 05:28:13;;;;;;;2.85;0.65;;;;;;;;;;5033336;28;20124;-72
2022/11/20 05:30:40;;;;;;;0.00;0.00;;;;;;;;;;5030646;28;20052;-72
2022/11/20 05:33:06;;;;;;;0.00;0.00;;;;;;;;;;5031167;28;20410;-71
2022/11/20 05:35:32;;;;;;;0.00;0.00;;;;;;;;;;5039055;28;20048;-71
2022/11/20 05:37:59;;;;;;;0.00;0.00;;;;;;;;;;5035700;28;20083;-71
2022/11/20 05:40:25;;;;;;;0.00;0.00;;;;;;;;;;5035301;28;20092;-71
2022/11/20 05:42:51;;;;;;;10.23;4.13;;;;;;;;;;5032793;28;20112;-72
2022/11/20 05:45:18;;;;;;;0.00;0.00;;;;;;;;;;5032232;28;20021;-71
2022/11/20 05:47:44;;;;;;;33.35;30.33;;;;;;;;;;5033330;28;20041;-71
2022/11/20 05:50:10;;;;;;;88.53;82.47;;;;;;;;;;5030932;28;20028;-72
2022/11/20 05:52:36;;;;;;;55.08;50.78;;;;;;;;;;5033137;28;20032;-71
2022/11/20 05:55:03;;;;;;;74.20;67.72;;;;;;;;;;5031067;28;20041;-73
2022/11/20 05:57:29;;;;;;;44.92;41.45;;;;;;;;;;5033068;28;20040;-71
2022/11/20 05:59:56;;;;;;;97.35;88.43;;;;;;;;;;5032190;28;20026;-71
2022/11/20 06:02:22;;;;;;;62.55;57.88;;;;;;;;;;5033090;28;20398;-71
2022/11/20 06:04:48;;;;;;;43.22;39.92;;;;;;;;;;5031276;28;20029;-72
2022/11/20 06:07:15;;;;;;;31.63;29.38;;;;;;;;;;5032597;28;20060;-71
2022/11/20 06:09:41;;;;;;;18.23;16.70;;;;;;;;;;5032510;28;20064;-71
2022/11/20 06:12:07;;;;;;;29.77;27.33;;;;;;;;;;5030523;28;20470;-72
2022/11/20 06:14:34;;;;;;;10.63;9.63;;;;;;;;;;5029011;28;20037;-72
2022/11/20 06:17:00;;;;;;;12.65;11.68;;;;;;;;;;5030427;28;20037;-71
2022/11/20 06:19:27;;;;;;;2.83;2.63;;;;;;;;;;5031579;28;20033;-73
2022/11/20 06:21:53;;;;;;;15.15;14.05;;;;;;;;;;5032897;28;20144;-71
2022/11/20 06:24:19;;;;;;;12.88;11.85;;;;;;;;;;5029673;28;20101;-72
2022/11/20 06:26:46;;;;;;;4.00;3.65;;;;;;;;;;5033048;28;20021;-69
2022/11/20 06:29:12;;;;;;;20.92;19.45;;;;;;;;;;5033372;28;20152;-72
2022/11/20 06:31:38;;;;;;;3.40;1.85;;;;;;;;;;5032176;28;20030;-71
2022/11/20 06:34:06;;;;;;;8.10;7.55;;;;;;;;;;5032845;28;20029;-72
2022/11/20 06:36:32;;;;;;;1.40;1.30;;;;;;;;;;5034098;28;20021;-71
2022/11/20 06:38:59;;;;;;;3.00;2.80;;;;;;;;;;5033555;28;20036;-71
2022/11/20 06:41:27;;;;;;;0.00;0.00;;;;;;;;;;5032643;28;20052;-72
2022/11/20 06:43:54;;;;;;;0.00;0.00;;;;;;;;;;5033378;28;20037;-71
2022/11/20 06:46:20;;;;;;;0.17;0.00;;;;;;;;;;5031610;28;20053;-70
2022/11/20 06:48:47;;;;;;;1.45;1.35;;;;;;;;;;5033473;28;20017;-71
2022/11/20 06:51:14;;;;;;;0.00;0.00;;;;;;;;;;5031034;28;20046;-70
2022/11/20 06:53:40;;;;;;;0.00;0.00;;;;;;;;;;5031855;28;20375;-71
2022/11/20 06:56:07;;;;;;;0.00;0.00;;;;;;;;;;5032055;28;20484;-71
2022/11/20 06:58:34;;;;;;;2.75;2.55;;;;;;;;;;5030482;28;20029;-71
2022/11/20 07:01:01;;;;;;;0.00;0.00;;;;;;;;;;5029793;28;20025;-71
2022/11/20 07:03:27;;;;;;;0.00;0.00;;;;;;;;;;5028092;28;20037;-70
2022/11/20 07:05:57;;;;;;;45.97;42.25;;;;;;;;;;5028474;28;20075;-71
2022/11/20 07:08:24;;;;;;;24.35;22.23;;;;;;;;;;5028191;28;20462;-71
2022/11/20 07:10:51;;;;;;;7.03;6.57;;;;;;;;;;5027986;28;20327;-70
2022/11/20 07:13:18;;;;;;;0.43;0.43;;;;;;;;;;5029827;28;20922;-71
2022/11/20 07:15:44;;;;;;;0.95;0.45;;;;;;;;;;5027712;28;20029;-71
2022/11/20 07:18:11;;;;;;;1.67;1.58;;;;;;;;;;5029472;28;20033;-72
2022/11/20 07:20:37;;;;;;;4.28;4.05;;;;;;;;;;5027430;28;20029;-71
2022/11/20 07:23:03;;;;;;;1.95;1.85;;;;;;;;;;5029844;28;20037;-71
2022/11/20 07:25:30;;;;;;;1.38;1.35;;;;;;;;;;5029772;28;20025;-72
2022/11/20 07:27:59;;;;;;;0.20;0.10;;;;;;;;;;5027907;28;20033;-71
2022/11/20 07:30:26;;;;;;;0.00;0.00;;;;;;;;;;5025842;28;20570;-71
2022/11/20 07:32:53;;;;;;;0.00;0.00;;;;;;;;;;5027405;28;20037;-71
2022/11/20 07:35:20;;;;;;;0.00;0.00;;;;;;;;;;5025566;28;20209;-71
2022/11/20 07:37:47;;;;;;;0.00;0.00;;;;;;;;;;5026880;28;20075;-72
2022/11/20 07:40:19;;;;;;;0.00;0.00;;;;;;;;;;5026797;28;20622;-74
2022/11/20 07:42:53;;;;;;;0.00;0.00;;;;;;;;;;5030521;28;20490;-71
2022/11/20 07:45:20;;;;;;;0.00;0.00;;;;;;;;;;5029611;28;20032;-72
2022/11/20 07:47:47;;;;;;;0.00;0.00;;;;;;;;;;5028007;28;20029;-71
2022/11/20 07:50:13;;;;;;;0.00;0.00;;;;;;;;;;5027920;28;20071;-71
2022/11/20 07:52:40;;;;;;;0.00;0.00;;;;;;;;;;5026981;28;20021;-72
2022/11/20 07:55:07;;;;;;;0.00;0.00;;;;;;;;;;5025293;28;20029;-71
2022/11/20 07:57:33;;;;;;;0.08;0.08;;;;;;;;;;5028010;28;20313;-71
2022/11/20 07:59:59;;;;;;;0.00;0.00;;;;;;;;;;5025202;28;20018;-71
2022/11/20 08:02:26;;;;;;;0.00;0.00;;;;;;;;;;5027519;28;20021;-72
2022/11/20 08:04:52;;;;;;;0.00;0.00;;;;;;;;;;5029825;28;20029;-71
2022/11/20 08:07:18;;;;;;;0.00;0.00;;;;;;;;;;5032339;28;20061;-71
2022/11/20 08:09:45;;;;;;;0.00;0.00;;;;;;;;;;5029843;28;20056;-71
2022/11/20 08:15:04;;;;;;;0.00;0.00;;;;;;;;;;5027477;28;20071;-72
2022/11/20 08:17:30;;;;;;;0.00;0.00;;;;;;;;;;5028123;28;20022;-72
2022/11/20 08:19:56;;;;;;;0.00;0.00;;;;;;;;;;5028433;28;20378;-72
2022/11/20 08:22:22;;;;;;;0.00;0.00;;;;;;;;;;5024715;28;20025;-71
2022/11/20 08:24:49;;;;;;;0.00;0.00;;;;;;;;;;5027593;28;20025;-71
2022/11/20 08:27:15;;;;;;;0.00;0.00;;;;;;;;;;5030384;28;20029;-72
2022/11/20 08:29:41;;;;;;;0.00;0.00;;;;;;;;;;5034645;28;20061;-71
2022/11/20 08:32:08;;;;;;;0.00;0.00;;;;;;;;;;5026344;28;20040;-72
2022/11/20 08:34:34;;;;;;;0.00;0.00;;;;;;;;;;5034675;28;20037;-71
2022/11/20 08:37:02;;;;;;;0.00;0.00;;;;;;;;;;5034146;28;20382;-71
2022/11/20 08:39:28;;;;;;;0.00;0.00;;;;;;;;;;5031959;28;20025;-71
2022/11/20 08:41:55;;;;;;;0.00;0.00;;;;;;;;;;5034221;28;20017;-71
2022/11/20 08:44:21;;;;;;;0.00;0.00;;;;;;;;;;5034938;28;20439;-71
2022/11/20 08:46:47;;;;;;;0.00;0.00;;;;;;;;;;5034290;28;20031;-72
2022/11/20 08:49:14;;;;;;;0.00;0.00;;;;;;;;;;5032799;28;20414;-72
2022/11/20 08:51:41;;;;;;;0.00;0.00;;;;;;;;;;5028104;28;20097;-71
2022/11/20 08:54:08;;;;;;;0.00;0.00;;;;;;;;;;5030896;28;20029;-71
2022/11/20 08:56:34;;;;;;;0.00;0.00;;;;;;;;;;5030650;28;20061;-71
2022/11/20 08:59:00;;;;;;;0.00;0.00;;;;;;;;;;5028300;28;20030;-71
2022/11/20 09:01:27;;;;;;;0.00;0.00;;;;;;;;;;5034519;28;20079;-71
2022/11/20 09:03:56;;;;;;;0.00;0.00;;;;;;;;;;5033350;28;20029;-71
2022/11/20 09:06:22;;;;;;;0.00;0.00;;;;;;;;;;5023530;28;20323;-71
2022/11/20 09:08:52;;;;;;;0.00;0.00;;;;;;;;;;5026283;28;20419;-71
2022/11/20 09:11:18;;;;;;;0.00;0.00;;;;;;;;;;5034015;28;20042;-71
2022/11/20 09:13:45;;;;;;;0.00;0.00;;;;;;;;;;5031950;28;20458;-72
2022/11/20 09:16:11;;;;;;;0.00;0.00;;;;;;;;;;5031979;28;20029;-72
2022/11/20 09:18:38;;;;;;;0.00;0.00;;;;;;;;;;5033256;28;20056;-72
2022/11/20 09:21:06;;;;;;;0.00;0.00;;;;;;;;;;5030836;28;20037;-71
2022/11/20 09:23:33;;;;;;;0.00;0.00;;;;;;;;;;5030257;28;20026;-71
2022/11/20 09:26:20;;;;;;;0.00;0.00;;;;;;;;;;5037928;28;20083;-73
2022/11/20 09:28:46;;;;;;;0.00;0.00;;;;;;;;;;5030045;28;20079;-71
2022/11/20 09:31:22;;;;;;;0.00;0.00;;;;;;;;;;5029534;28;20101;-71
2022/11/20 09:33:49;;;;;;;0.00;0.00;;;;;;;;;;5032517;28;20096;-72
2022/11/20 09:36:16;;;;;;;0.00;0.00;;;;;;;;;;5033080;28;20025;-71
2022/11/20 09:38:43;;;;;;;0.00;0.00;;;;;;;;;;5034539;28;20017;-72
2022/11/20 09:41:31;;;;;;;0.00;0.00;;;;;;;;;;5029324;28;20026;-71
2022/11/20 09:44:06;;;;;;;0.00;0.00;;;;;;;;;;5033268;28;20033;-72
2022/11/20 09:46:47;;;;;;;0.00;0.00;;;;;;;;;;5033714;28;20072;-72
2022/11/20 09:49:24;;;;;;;0.00;0.00;;;;;;;;;;5034496;28;20425;-72
2022/11/20 09:51:56;;;;;;;0.00;0.00;;;;;;;;;;5033105;28;20505;-71
2022/11/20 09:54:34;;;;;;;0.00;0.00;;;;;;;;;;5032943;28;20084;-72
2022/11/20 09:57:02;;;;;;;0.00;0.00;;;;;;;;;;5032266;28;20104;-72
2022/11/20 09:59:31;;;;;;;0.00;0.00;;;;;;;;;;5030081;28;20028;-72
2022/11/20 10:01:58;;;;;;;0.00;0.00;;;;;;;;;;5032342;28;20021;-72
2022/11/20 10:04:25;;;;;;;0.00;0.00;;;;;;;;;;5033282;28;20456;-71
2022/11/20 10:07:05;;;;;;;0.00;0.00;;;;;;;;;;5032049;28;20048;-72
2022/11/20 10:09:33;;;;;;;0.00;0.00;;;;;;;;;;5026653;28;20448;-71
2022/11/20 10:12:12;;;;;;;0.00;0.00;;;;;;;;;;5029010;28;20032;-72
2022/11/20 10:14:43;;;;;;;0.00;0.00;;;;;;;;;;5031910;28;20033;-72
2022/11/20 10:17:12;;;;;;;0.00;0.00;;;;;;;;;;5025305;28;20367;-71
2022/11/20 10:19:39;;;;;;;0.00;0.00;;;;;;;;;;5027495;28;20018;-71
2022/11/20 10:22:13;;;;;;;0.00;0.00;;;;;;;;;;5046723;28;20477;-73
2022/11/20 10:24:56;;;;;;;0.00;0.00;;;;;;;;;;5043857;28;21428;-72
2022/11/20 10:27:22;;;;;;;0.00;0.00;;;;;;;;;;5046729;28;20066;-71
2022/11/20 10:29:54;;;;;;;0.00;0.00;;;;;;;;;;5051187;28;20501;-72
2022/11/20 10:32:25;;;;;;;0.00;0.00;;;;;;;;;;5042357;28;20037;-72
2022/11/20 10:34:54;;;;;;;0.00;0.00;;;;;;;;;;5045459;28;20021;-72
2022/11/20 10:37:25;;;;;;;0.00;0.00;;;;;;;;;;5042008;28;20401;-72
2022/11/20 10:40:09;;;;;;;0.00;0.00;;;;;;;;;;5047546;28;20067;-72
2022/11/20 10:42:41;;;;;;;0.00;0.00;;;;;;;;;;5049388;28;20029;-72
2022/11/20 10:45:16;;;;;;;0.00;0.00;;;;;;;;;;5045894;28;20021;-72
2022/11/20 10:47:42;;;;;;;0.00;0.00;;;;;;;;;;5050367;28;20040;-72
2022/11/20 10:50:11;;;;;;;0.00;0.00;;;;;;;;;;5049071;28;20500;-72
2022/11/20 10:52:52;;;;;;;0.00;0.00;;;;;;;;;;5047936;28;20037;-72
2022/11/20 10:55:45;;;;;;;0.00;0.00;;;;;;;;;;5050757;28;20067;-73
2022/11/20 10:58:38;;;;;;;0.00;0.00;;;;;;;;;;5049433;28;20036;-74
2022/11/20 11:01:05;;;;;;;0.00;0.00;;;;;;;;;;5023690;28;20788;-71
2022/11/20 11:03:32;;;;;;;0.00;0.00;;;;;;;;;;5043102;28;20479;-72
2022/11/20 11:06:07;;;;;;;0.00;0.00;;;;;;;;;;5044869;28;20529;-74
2022/11/20 11:08:36;;;;;;;0.00;0.00;;;;;;;;;;5044011;28;20036;-72
2022/11/20 11:11:08;;;;;;;0.00;0.00;;;;;;;;;;5046278;28;20033;-73
2022/11/20 11:13:34;;;;;;;0.00;0.00;;;;;;;;;;5048841;28;20627;-72
2022/11/20 11:16:00;;;;;;;0.00;0.00;;;;;;;;;;5050730;28;20100;-71
2022/11/20 11:18:29;;;;;;;0.00;0.00;;;;;;;;;;5051100;28;20021;-72
2022/11/20 11:20:56;;;;;;;0.00;0.00;;;;;;;;;;5050354;28;20017;-71
2022/11/20 11:23:29;;;;;;;0.00;0.00;;;;;;;;;;5049632;28;20124;-72
2022/11/20 11:26:00;;;;;;;0.00;0.00;;;;;;;;;;5050842;28;20021;-72
2022/11/20 11:28:27;;;;;;;0.00;0.00;;;;;;;;;;5048365;28;20057;-72
2022/11/20 11:30:54;;;;;;;0.00;0.00;;;;;;;;;;5040695;28;20068;-73
2022/11/20 11:33:30;;;;;;;0.00;0.00;;;;;;;;;;5045930;28;20037;-72
2022/11/20 11:35:58;;;;;;;0.00;0.00;;;;;;;;;;5048828;28;20028;-73
2022/11/20 11:38:44;;;;;;;0.00;0.00;;;;;;;;;;5050883;28;20047;-72
2022/11/20 11:41:15;;;;;;;0.00;0.00;;;;;;;;;;5051011;28;20069;-73
2022/11/20 11:46:37;;;;;;;0.00;0.00;;;;;;;;;;5049190;28;20059;-71
2022/11/20 11:49:06;;;;;;;0.00;0.00;;;;;;;;;;5048783;28;20021;-71
2022/11/20 11:51:53;;;;;;;0.00;0.00;;;;;;;;;;5050104;28;20029;-72
2022/11/20 11:54:31;;;;;;;0.00;0.00;;;;;;;;;;5032075;28;20041;-72
2022/11/20 11:57:01;;;;;;;0.00;0.00;;;;;;;;;;5049279;28;20021;-74
2022/11/20 11:59:42;;;;;;;0.00;0.00;;;;;;;;;;5043097;28;20027;-74
2022/11/20 12:02:32;;;;;;;0.00;0.00;;;;;;;;;;5045999;28;20427;-72
2022/11/20 12:05:00;;;;;;;0.00;0.00;;;;;;;;;;5046841;28;20432;-72
2022/11/20 12:07:27;;;;;;;0.00;0.00;;;;;;;;;;5050409;28;20036;-73
2022/11/20 12:09:54;;;;;;;0.00;0.00;;;;;;;;;;5048387;28;20120;-72
2022/11/20 12:12:23;;;;;;;0.00;0.00;;;;;;;;;;5050275;28;20031;-72
2022/11/20 12:15:01;;;;;;;0.00;0.00;;;;;;;;;;5054880;28;20028;-73
2022/11/20 12:17:28;;;;;;;0.00;0.00;;;;;;;;;;5052643;28;20481;-72
2022/11/20 12:19:54;;;;;;;0.00;0.00;;;;;;;;;;5048409;28;20034;-72
2022/11/20 12:22:23;;;;;;;0.00;0.00;;;;;;;;;;5054937;28;20067;-72
2022/11/20 12:24:56;;;;;;;0.00;0.00;;;;;;;;;;5055250;28;20041;-72
2022/11/20 12:27:34;;;;;;;0.00;0.00;;;;;;;;;;5049627;28;20052;-73
2022/11/20 12:30:07;;;;;;;0.00;0.00;;;;;;;;;;5051275;28;20033;-73
2022/11/20 12:32:52;;;;;;;0.00;0.00;;;;;;;;;;5052300;28;20028;-72
2022/11/20 12:35:18;;;;;;;0.00;0.00;;;;;;;;;;5053230;28;20486;-72
2022/11/20 12:38:03;;;;;;;0.00;0.00;;;;;;;;;;5055316;28;20025;-73
2022/11/20 12:40:39;;;;;;;0.00;0.00;;;;;;;;;;5051602;28;20454;-72
2022/11/20 12:46:11;;;;;;;0.00;0.00;;;;;;;;;;5053132;28;20492;-73
2022/11/20 12:48:51;;;;;;;0.00;0.00;;;;;;;;;;5054200;28;20120;-72
2022/11/20 12:51:55;;;;;;;0.00;0.00;;;;;;;;;;5052092;28;20070;-72
2022/11/20 12:54:28;;;;;;;0.00;0.00;;;;;;;;;;4968435;28;20178;-72
2022/11/20 12:56:54;;;;;;;0.00;0.00;;;;;;;;;;4971458;28;20039;-71
2022/11/20 12:59:20;;;;;;;0.00;0.00;;;;;;;;;;5009271;28;20029;-72
2022/11/20 13:01:50;;;;;;;0.00;0.00;;;;;;;;;;5052504;28;20017;-72
2022/11/20 13:04:24;;;;;;;0.00;0.00;;;;;;;;;;5051346;28;20039;-72
2022/11/20 13:06:51;;;;;;;0.00;0.00;;;;;;;;;;5052534;28;20032;-72
2022/11/20 13:09:21;;;;;;;0.00;0.00;;;;;;;;;;5047374;28;20053;-73
2022/11/20 13:12:06;;;;;;;0.00;0.00;;;;;;;;;;5048456;28;20492;-72
2022/11/20 13:14:37;;;;;;;0.00;0.00;;;;;;;;;;5051122;28;20036;-71
2022/11/20 13:17:11;;;;;;;0.00;0.00;;;;;;;;;;5050772;28;20035;-72
2022/11/20 13:19:38;;;;;;;0.00;0.00;;;;;;;;;;5052308;28;20029;-72
2022/11/20 13:22:04;;;;;;;0.00;0.00;;;;;;;;;;5054678;28;20029;-72
2022/11/20 13:24:32;;;;;;;0.00;0.00;;;;;;;;;;5050771;28;20033;-73
2022/11/20 13:27:02;;;;;;;0.00;0.00;;;;;;;;;;5049840;28;20111;-72
2022/11/20 13:29:29;;;;;;;0.00;0.00;;;;;;;;;;5049475;28;20040;-73
2022/11/20 13:32:32;;;;;;;0.00;0.00;;;;;;;;;;5048054;28;20028;-72
2022/11/20 13:35:05;;;;;;;0.00;0.00;;;;;;;;;;5013771;28;20051;-72
2022/11/20 13:37:33;;;;;;;0.00;0.00;;;;;;;;;;5052935;28;20466;-72
2022/11/20 13:40:08;;;;;;;0.00;0.00;;;;;;;;;;5052804;28;20280;-71
2022/11/20 13:42:44;;;;;;;0.00;0.00;;;;;;;;;;5052306;28;20102;-72
2022/11/20 13:45:12;;;;;;;0.00;0.00;;;;;;;;;;5048927;28;20053;-71
2022/11/20 13:47:47;;;;;;;0.00;0.00;;;;;;;;;;5050150;28;20039;-72
2022/11/20 13:50:14;;;;;;;0.00;0.00;;;;;;;;;;5047606;28;20021;-72
2022/11/20 13:52:57;;;;;;;0.00;0.00;;;;;;;;;;5054761;28;20412;-73
2022/11/20 13:55:43;;;;;;;0.00;0.00;;;;;;;;;;5048687;28;20033;-73
2022/11/20 13:58:22;;;;;;;0.00;0.00;;;;;;;;;;5050219;28;20040;-73
2022/11/20 14:00:55;;;;;;;0.00;0.00;;;;;;;;;;5051335;28;20027;-71
2022/11/20 14:03:23;;;;;;;0.00;0.00;;;;;;;;;;5048626;28;20489;-72
2022/11/20 14:06:02;;;;;;;0.00;0.00;;;;;;;;;;5048169;28;20032;-72
2022/11/20 14:08:35;;;;;;;0.00;0.00;;;;;;;;;;5046848;28;20021;-73
2022/11/20 14:11:13;;;;;;;0.00;0.00;;;;;;;;;;5052931;28;20036;-73
2022/11/20 14:13:39;;;;;;;0.00;0.00;;;;;;;;;;5047989;28;20071;-72
2022/11/20 14:16:06;;;;;;;0.00;0.00;;;;;;;;;;5048127;28;20100;-74
2022/11/20 14:18:32;;;;;;;0.00;0.00;;;;;;;;;;5053188;28;20478;-72
2022/11/20 14:21:01;;;;;;;0.00;0.00;;;;;;;;;;5047772;28;20025;-73
2022/11/20 14:23:30;;;;;;;0.00;0.00;;;;;;;;;;5048964;28;20029;-73
2022/11/20 14:25:56;;;;;;;0.00;0.00;;;;;;;;;;5051459;28;20154;-72
2022/11/20 14:28:26;;;;;;;0.00;0.00;;;;;;;;;;5050482;28;20484;-72
2022/11/20 14:30:53;;;;;;;0.00;0.00;;;;;;;;;;5047610;28;20262;-72
2022/11/20 14:33:24;;;;;;;0.00;0.00;;;;;;;;;;5050333;28;20053;-72
2022/11/20 14:35:52;;;;;;;0.00;0.00;;;;;;;;;;5051480;28;20460;-73
2022/11/20 14:38:22;;;;;;;0.00;0.00;;;;;;;;;;5048754;28;20485;-73
2022/11/20 14:40:48;;;;;;;0.00;0.00;;;;;;;;;;5050151;28;20112;-73
2022/11/20 14:43:25;;;;;;;0.00;0.00;;;;;;;;;;5051275;28;20024;-72
2022/11/20 14:46:03;;;;;;;0.00;0.00;;;;;;;;;;5051245;28;20104;-75
2022/11/20 14:48:39;;;;;;;0.00;0.00;;;;;;;;;;5050422;28;20033;-72
2022/11/20 14:51:05;;;;;;;0.00;0.00;;;;;;;;;;5049823;28;20028;-73
2022/11/20 14:53:31;;;;;;;0.00;0.00;;;;;;;;;;5052585;28;20021;-72
2022/11/20 14:55:59;;;;;;;0.00;0.00;;;;;;;;;;5046060;28;21265;-72
2022/11/20 14:58:27;;;;;;;0.00;0.00;;;;;;;;;;5046914;28;20025;-72
2022/11/20 15:00:58;;;;;;;0.00;0.00;;;;;;;;;;5048487;28;20363;-73
2022/11/20 15:03:31;;;;;;;0.00;0.00;;;;;;;;;;5045495;28;20369;-73
2022/11/20 15:05:57;;;;;;;0.00;0.00;;;;;;;;;;5045206;28;20381;-72